Time;durP1;ratioP1;P1;durP2;ratioP2;P2;SDS_P1;SDS_P2;PMS_P1;PMS_P2;Temp;Humidity;BMP_temperature;BMP_pressure;BME280_temperature;BME280_humidity;BME280_pressure;Samples;Min_cycle;Max_cycle;Signal;HPM_P1;HPM_P2
2022/08/28 00:02:25;;;;;;;22.62;16.87;;;;;;;19.57;74.36;100841.22;1685125;84;21003;-84
2022/08/28 00:04:51;;;;;;;19.20;16.17;;;;;;;19.54;74.37;100839.91;1684671;83;21027;-84
2022/08/28 00:07:18;;;;;;;20.90;15.63;;;;;;;19.51;74.37;100836.83;1672445;84;21035;-84
2022/08/28 00:09:45;;;;;;;20.88;15.65;;;;;;;19.50;74.52;100831.08;1664931;84;21047;-84
2022/08/28 00:12:12;;;;;;;18.48;16.40;;;;;;;19.49;74.51;100832.42;1667608;84;23095;-84
2022/08/28 00:14:39;;;;;;;22.35;15.90;;;;;;;19.47;74.57;100834.22;1685016;84;21067;-84
2022/08/28 00:17:06;;;;;;;18.02;15.65;;;;;;;19.43;74.61;100826.23;1685188;83;21800;-84
2022/08/28 00:19:33;;;;;;;18.75;16.35;;;;;;;19.41;74.74;100826.70;1685405;84;21559;-84
2022/08/28 00:22:02;;;;;;;25.00;16.70;;;;;;;19.41;74.77;100832.50;1668417;84;21074;-84
2022/08/28 00:24:29;;;;;;;20.48;17.30;;;;;;;19.39;74.77;100831.63;1685584;83;22385;-84
2022/08/28 00:29:41;;;;;;;19.48;15.58;;;;;;;19.35;74.87;100831.20;1685163;84;21071;-84
2022/08/28 00:32:08;;;;;;;19.37;16.17;;;;;;;19.34;74.93;100836.13;1668530;84;21906;-85
2022/08/28 00:34:35;;;;;;;20.92;16.70;;;;;;;19.31;74.96;100841.48;1685403;84;21011;-84
2022/08/28 00:37:01;;;;;;;21.70;17.15;;;;;;;19.27;75.00;100833.95;1684788;83;21730;-84
2022/08/28 00:39:28;;;;;;;20.68;15.98;;;;;;;19.25;75.05;100829.08;1684399;84;21039;-84
2022/08/28 00:41:57;;;;;;;25.37;17.82;;;;;;;19.23;75.08;100829.55;1684985;84;21046;-84
2022/08/28 00:44:25;;;;;;;22.70;16.70;;;;;;;19.20;75.10;100822.47;1680231;84;21023;-84
2022/08/28 00:46:53;;;;;;;22.62;17.25;;;;;;;19.18;75.14;100827.36;1673914;84;21063;-84
2022/08/28 00:49:24;;;;;;;22.00;17.17;;;;;;;19.15;75.17;100821.62;1684492;83;21731;-84
2022/08/28 00:52:10;;;;;;;18.10;16.20;;;;;;;19.12;75.21;100820.76;1674335;83;21029;-84
2022/08/28 00:54:51;;;;;;;20.77;16.30;;;;;;;19.10;75.29;100817.22;1682547;84;21025;-84
2022/08/28 00:57:27;;;;;;;18.23;16.35;;;;;;;19.06;75.34;100819.48;1673558;84;20980;-84
2022/08/28 00:59:54;;;;;;;17.30;15.53;;;;;;;19.03;75.40;100824.38;1640483;86;21047;-84
2022/08/28 01:02:21;;;;;;;19.85;16.48;;;;;;;19.00;75.42;100824.43;1658246;84;21777;-84
2022/08/28 01:04:48;;;;;;;19.40;16.45;;;;;;;18.97;75.52;100824.44;1650210;84;22090;-84
2022/08/28 01:07:15;;;;;;;18.35;15.65;;;;;;;18.94;75.52;100827.13;1648568;85;21453;-83
2022/08/28 01:09:47;;;;;;;23.62;16.57;;;;;;;18.92;75.56;100826.25;1655641;84;21038;-84
2022/08/28 01:12:23;;;;;;;24.32;16.85;;;;;;;18.89;75.62;100825.84;1648979;84;21098;-83
2022/08/28 01:14:51;;;;;;;19.20;16.52;;;;;;;18.85;75.67;100822.77;1662978;84;21683;-83
2022/08/28 01:17:17;;;;;;;20.23;15.63;;;;;;;18.83;75.72;100821.91;1667254;84;21039;-83
2022/08/28 01:19:51;;;;;;;21.40;16.48;;;;;;;18.80;75.75;100821.45;1669396;85;21014;-83
2022/08/28 01:22:42;;;;;;;25.88;18.05;;;;;;;18.78;75.79;100819.67;1645716;85;21016;-83
2022/08/28 01:25:12;;;;;;;19.73;16.85;;;;;;;18.76;75.80;100820.14;1657935;84;21086;-83
2022/08/28 01:27:40;;;;;;;20.70;14.85;;;;;;;18.73;75.81;100816.15;1648488;84;21730;-83
2022/08/28 01:30:14;;;;;;;23.02;15.40;;;;;;;18.71;75.85;100821.95;1668649;84;21500;-83
2022/08/28 01:32:44;;;;;;;19.32;15.75;;;;;;;18.70;75.85;100814.86;1662531;85;21122;-83
2022/08/28 01:35:15;;;;;;;18.23;14.95;;;;;;;18.69;75.88;100811.74;1640768;86;21046;-83
2022/08/28 01:37:42;;;;;;;21.17;16.02;;;;;;;18.68;75.87;100810.87;1602515;87;21049;-83
2022/08/28 01:40:10;;;;;;;20.45;15.85;;;;;;;18.68;75.89;100813.53;1638192;85;21920;-83
2022/08/28 01:42:40;;;;;;;21.85;16.50;;;;;;;18.67;75.95;100810.41;1623848;87;21062;-83
2022/08/28 01:45:21;;;;;;;19.23;16.37;;;;;;;18.66;76.01;100808.66;1618445;87;21714;-83
2022/08/28 01:47:49;;;;;;;18.20;16.17;;;;;;;18.65;76.06;100814.42;1594293;88;21489;-83
2022/08/28 01:50:18;;;;;;;19.15;16.40;;;;;;;18.62;76.13;100814.92;1594635;88;21626;-83
2022/08/28 01:52:45;;;;;;;22.45;17.52;;;;;;;18.59;76.24;100808.27;1594675;88;22387;-83
2022/08/28 01:55:12;;;;;;;24.57;16.15;;;;;;;18.58;76.29;100817.14;1594554;88;21916;-83
2022/08/28 01:57:48;;;;;;;22.60;16.95;;;;;;;18.56;76.36;100814.52;1629846;86;21067;-83
2022/08/28 02:00:16;;;;;;;23.87;17.87;;;;;;;18.54;76.48;100812.28;1677839;83;21358;-83
2022/08/28 02:02:43;;;;;;;24.82;18.52;;;;;;;18.53;76.50;100809.65;1639660;85;21623;-83
2022/08/28 02:05:09;;;;;;;17.62;15.72;;;;;;;18.53;76.62;100813.19;1685724;84;21738;-83
2022/08/28 02:07:36;;;;;;;20.23;17.10;;;;;;;18.52;76.62;100814.07;1684611;84;21036;-83
2022/08/28 02:10:05;;;;;;;26.33;17.90;;;;;;;18.50;76.66;100810.53;1683206;84;21114;-83
2022/08/28 02:12:32;;;;;;;23.32;19.50;;;;;;;18.48;76.74;100809.66;1638541;85;21969;-83
2022/08/28 02:14:59;;;;;;;27.07;19.73;;;;;;;18.46;76.83;100807.00;1679727;85;21469;-83
2022/08/28 02:17:26;;;;;;;21.42;18.17;;;;;;;18.43;76.93;100807.05;1650770;84;21734;-83
2022/08/28 02:19:53;;;;;;;21.02;17.07;;;;;;;18.43;76.98;100811.04;1663444;84;21536;-83
2022/08/28 02:22:20;;;;;;;19.67;16.95;;;;;;;18.42;76.99;100815.05;1685344;84;21016;-83
2022/08/28 02:24:47;;;;;;;20.10;17.45;;;;;;;18.42;77.03;100815.92;1675174;85;21423;-83
2022/08/28 02:27:16;;;;;;;19.87;16.45;;;;;;;18.42;77.05;100817.70;1672688;85;21818;-83
2022/08/28 02:29:43;;;;;;;17.67;14.85;;;;;;;18.39;76.95;100812.38;1665242;85;21777;-84
2022/08/28 02:32:11;;;;;;;20.05;15.15;;;;;;;18.37;76.96;100813.72;1641495;84;21031;-83
2022/08/28 02:34:40;;;;;;;22.40;14.95;;;;;;;18.36;76.94;100815.97;1675284;85;21064;-83
2022/08/28 02:37:07;;;;;;;20.00;15.75;;;;;;;18.35;76.90;100815.52;1680340;84;21560;-83
2022/08/28 02:39:34;;;;;;;20.62;15.40;;;;;;;18.35;76.90;100824.84;1681183;84;21035;-83
2022/08/28 02:42:01;;;;;;;20.25;15.35;;;;;;;18.33;76.89;100823.09;1671932;85;21731;-83
2022/08/28 02:44:27;;;;;;;19.52;14.98;;;;;;;18.33;76.94;100815.09;1655826;84;21097;-83
2022/08/28 02:46:54;;;;;;;19.45;15.28;;;;;;;18.31;76.87;100808.89;1649850;86;21007;-85
2022/08/28 02:49:25;;;;;;;17.02;15.20;;;;;;;18.27;76.90;100809.36;1652714;84;21062;-83
2022/08/28 02:51:50;;;;;;;16.17;14.38;;;;;;;18.26;76.98;100811.56;1651991;84;21100;-83
2022/08/28 02:54:17;;;;;;;20.55;15.18;;;;;;;18.25;77.00;100816.48;1651906;84;21741;-83
2022/08/28 02:56:44;;;;;;;29.57;14.80;;;;;;;18.22;77.00;100808.03;1654162;84;21083;-84
2022/08/28 02:59:12;;;;;;;22.22;14.55;;;;;;;18.22;77.01;100807.16;1637431;84;21072;-83
2022/08/28 03:01:39;;;;;;;17.17;14.35;;;;;;;18.22;76.99;100810.70;1626702;84;21044;-83
2022/08/28 03:04:05;;;;;;;17.75;14.07;;;;;;;18.20;76.97;100812.48;1639729;84;21055;-82
2022/08/28 03:06:32;;;;;;;18.25;14.53;;;;;;;18.19;76.94;100812.06;1643310;86;21743;-83
2022/08/28 03:08:59;;;;;;;17.52;14.70;;;;;;;18.13;76.83;100808.11;1657258;84;21944;-83
2022/08/28 03:11:26;;;;;;;19.52;13.58;;;;;;;18.10;76.89;100806.78;1615236;87;21015;-83
2022/08/28 03:13:54;;;;;;;18.32;14.07;;;;;;;18.06;76.93;100807.24;1632316;84;20988;-85
2022/08/28 03:16:21;;;;;;;15.68;14.05;;;;;;;18.02;76.83;100812.15;1640838;86;21078;-84
2022/08/28 03:18:48;;;;;;;19.48;13.45;;;;;;;17.97;76.84;100814.39;1652642;84;21733;-84
2022/08/28 03:21:14;;;;;;;16.37;12.82;;;;;;;17.95;76.93;100821.05;1675650;84;21015;-83
2022/08/28 03:23:41;;;;;;;17.67;13.25;;;;;;;17.90;76.89;100808.20;1653115;85;21019;-84
2022/08/28 03:26:11;;;;;;;16.67;13.60;;;;;;;17.87;76.89;100808.23;1628382;86;21037;-84
2022/08/28 03:28:45;;;;;;;16.02;13.80;;;;;;;17.82;76.97;100801.54;1663380;84;21062;-84
2022/08/28 03:31:16;;;;;;;16.60;13.48;;;;;;;17.83;77.16;100807.74;1637906;86;22672;-84
2022/08/28 03:33:43;;;;;;;19.35;13.55;;;;;;;17.84;77.14;100817.09;1636241;85;20963;-84
2022/08/28 03:36:11;;;;;;;16.17;13.13;;;;;;;17.82;77.16;100801.54;1655694;86;21023;-84
2022/08/28 03:38:38;;;;;;;16.85;13.38;;;;;;;17.80;77.15;100805.98;1654570;86;21518;-83
2022/08/28 03:41:10;;;;;;;20.48;13.48;;;;;;;17.79;77.14;100801.99;1665887;84;21032;-84
2022/08/28 03:43:37;;;;;;;16.35;11.68;;;;;;;17.80;77.15;100808.66;1628435;86;21788;-83
2022/08/28 03:46:05;;;;;;;16.20;13.22;;;;;;;17.82;77.17;100805.98;1646604;85;21062;-83
2022/08/28 03:48:36;;;;;;;17.60;11.97;;;;;;;17.84;77.21;100805.53;1642064;86;21445;-83
2022/08/28 03:51:10;;;;;;;19.23;12.10;;;;;;;17.86;77.06;100805.98;1646435;86;21060;-83
2022/08/28 03:53:36;;;;;;;16.50;11.90;;;;;;;17.88;77.03;100807.32;1658144;85;21063;-84
2022/08/28 03:56:09;;;;;;;15.28;12.33;;;;;;;17.90;77.06;100801.99;1633864;85;21741;-84
2022/08/28 03:58:36;;;;;;;14.87;11.95;;;;;;;17.92;76.96;100806.86;1640311;85;21012;-84
2022/08/28 04:01:03;;;;;;;14.58;11.10;;;;;;;17.96;76.93;100801.95;1647841;86;21618;-84
2022/08/28 04:03:30;;;;;;;15.48;12.30;;;;;;;18.03;76.93;100805.04;1662039;85;21422;-84
2022/08/28 04:05:56;;;;;;;14.70;11.10;;;;;;;18.12;76.97;100804.12;1628860;86;21016;-83
2022/08/28 04:08:23;;;;;;;12.95;10.90;;;;;;;18.29;76.98;100800.91;1663393;84;21689;-84
2022/08/28 04:10:50;;;;;;;14.60;10.45;;;;;;;18.48;76.79;100804.33;1633456;86;21319;-84
2022/08/28 04:13:18;;;;;;;16.15;10.40;;;;;;;18.72;76.63;100805.06;1647920;86;20996;-83
2022/08/28 04:15:45;;;;;;;17.98;11.15;;;;;;;18.99;76.26;100814.18;1620504;86;21031;-83
2022/08/28 04:18:11;;;;;;;14.78;11.00;;;;;;;19.25;75.87;100802.85;1656289;86;21573;-84
2022/08/28 04:20:38;;;;;;;12.68;10.20;;;;;;;19.44;75.43;100804.42;1650116;86;22597;-83
2022/08/28 04:23:07;;;;;;;16.00;10.63;;;;;;;19.58;74.95;100808.30;1641421;85;21535;-84
2022/08/28 04:25:33;;;;;;;11.38;10.13;;;;;;;19.88;75.14;100808.41;1647181;85;21028;-83
2022/08/28 04:28:00;;;;;;;13.20;10.63;;;;;;;20.42;75.16;100806.78;1646081;86;21222;-84
2022/08/28 04:30:28;;;;;;;13.45;11.15;;;;;;;21.05;74.71;100799.13;1641877;86;21849;-84
2022/08/28 04:32:55;;;;;;;18.45;10.15;;;;;;;21.67;74.01;100799.77;1640447;86;22555;-84
2022/08/28 04:35:22;;;;;;;14.53;9.70;;;;;;;22.34;73.44;100801.95;1640450;86;21035;-84
2022/08/28 04:37:49;;;;;;;12.37;9.75;;;;;;;22.96;72.01;100800.01;1630199;86;21026;-84
2022/08/28 04:40:15;;;;;;;14.05;10.03;;;;;;;23.41;70.73;100794.84;1645682;84;21001;-84
2022/08/28 04:42:43;;;;;;;12.50;10.15;;;;;;;23.87;69.79;100793.55;1616841;88;21039;-84
2022/08/28 04:45:10;;;;;;;16.82;10.13;;;;;;;24.34;69.03;100789.86;1647465;86;22001;-84
2022/08/28 04:47:37;;;;;;;13.58;10.32;;;;;;;24.85;68.10;100799.02;1643928;86;21111;-84
2022/08/28 04:50:05;;;;;;;13.88;10.58;;;;;;;25.34;67.49;100797.38;1621598;88;21083;-84
2022/08/28 04:52:32;;;;;;;13.25;10.35;;;;;;;25.87;66.21;100788.23;1641317;85;21080;-84
2022/08/28 04:55:01;;;;;;;12.40;10.55;;;;;;;26.29;65.25;100794.27;1643916;86;21087;-84
2022/08/28 04:57:27;;;;;;;12.28;9.70;;;;;;;26.73;64.27;100797.51;1611719;86;23024;-84
2022/08/28 04:59:54;;;;;;;11.45;9.10;;;;;;;27.18;63.44;100792.44;1651622;86;21004;-84
2022/08/28 05:02:21;;;;;;;10.32;9.33;;;;;;;27.65;62.66;100791.30;1643393;85;21024;-84
2022/08/28 05:04:48;;;;;;;16.07;10.10;;;;;;;28.17;62.10;100794.77;1649291;86;21098;-84
2022/08/28 05:07:15;;;;;;;13.28;9.60;;;;;;;28.60;60.76;100786.81;1624844;86;21098;-84
2022/08/28 05:09:44;;;;;;;12.15;9.88;;;;;;;28.97;60.12;100792.22;1620095;87;21028;-84
2022/08/28 05:12:15;;;;;;;12.18;9.90;;;;;;;29.42;59.06;100796.23;1637963;87;21112;-84
2022/08/28 05:14:39;;;;;;;14.03;10.43;;;;;;;29.64;57.78;100799.55;1625053;87;21055;-84
2022/08/28 05:17:06;;;;;;;18.55;10.35;;;;;;;29.29;56.51;100803.26;1657577;85;21028;-84
2022/08/28 05:19:33;;;;;;;12.55;11.05;;;;;;;28.75;55.37;100806.84;1651585;86;21004;-84
2022/08/28 05:22:01;;;;;;;12.30;9.90;;;;;;;28.12;55.14;100809.89;1638737;86;21024;-84
2022/08/28 05:24:28;;;;;;;14.45;10.18;;;;;;;27.47;55.24;100815.50;1639889;86;21035;-84
2022/08/28 05:26:56;;;;;;;15.75;10.80;;;;;;;26.90;55.46;100819.76;1652448;86;21079;-84
2022/08/28 05:29:23;;;;;;;11.73;10.60;;;;;;;26.55;56.04;100819.34;1651591;86;21015;-84
2022/08/28 05:31:49;;;;;;;11.45;10.28;;;;;;;26.30;56.45;100823.50;1642961;86;21560;-84
2022/08/28 05:34:16;;;;;;;14.00;10.85;;;;;;;26.14;56.71;100826.77;1623796;86;22662;-83
2022/08/28 05:36:43;;;;;;;12.13;9.93;;;;;;;25.97;56.94;100828.77;1622103;86;21007;-84
2022/08/28 05:39:11;;;;;;;20.92;10.70;;;;;;;25.84;57.01;100827.92;1619561;86;21584;-84
2022/08/28 05:41:40;;;;;;;14.87;11.08;;;;;;;25.64;57.29;100829.55;1612343;86;21863;-84
2022/08/28 05:44:09;;;;;;;13.43;10.82;;;;;;;25.49;57.60;100829.63;1610001;86;21101;-84
2022/08/28 05:46:38;;;;;;;18.82;11.25;;;;;;;25.29;57.63;100825.41;1630552;86;21758;-83
2022/08/28 05:49:06;;;;;;;15.78;11.88;;;;;;;25.03;58.16;100828.02;1644878;85;21068;-83
2022/08/28 05:51:35;;;;;;;15.32;12.23;;;;;;;24.92;58.43;100831.53;1626265;87;21034;-84
2022/08/28 05:54:04;;;;;;;13.15;11.75;;;;;;;24.81;58.34;100834.61;1608560;88;21019;-84
2022/08/28 05:56:34;;;;;;;15.23;11.90;;;;;;;24.66;58.56;100831.52;1649574;85;20959;-83
2022/08/28 05:59:01;;;;;;;15.45;11.68;;;;;;;24.59;58.92;100826.81;1640234;86;21731;-84
2022/08/28 06:01:31;;;;;;;14.70;11.50;;;;;;;24.52;59.15;100829.28;1635544;86;21062;-84
2022/08/28 06:04:02;;;;;;;15.98;12.15;;;;;;;24.47;59.33;100826.69;1610226;87;21042;-84
2022/08/28 06:06:33;;;;;;;18.07;12.13;;;;;;;24.44;59.37;100830.36;1615301;87;21112;-84
2022/08/28 06:09:02;;;;;;;13.43;11.70;;;;;;;24.37;59.31;100827.91;1622477;85;21093;-84
2022/08/28 06:11:29;;;;;;;17.35;13.30;;;;;;;24.33;59.45;100824.44;1615647;86;21962;-84
2022/08/28 06:14:00;;;;;;;23.18;13.10;;;;;;;24.29;59.49;100826.81;1630876;85;21085;-84
2022/08/28 06:16:27;;;;;;;14.65;13.03;;;;;;;24.22;59.60;100822.06;1610109;86;21018;-84
2022/08/28 06:18:54;;;;;;;18.15;13.30;;;;;;;24.24;59.67;100827.41;1643232;85;21494;-84
2022/08/28 06:21:21;;;;;;;14.60;11.90;;;;;;;24.23;59.73;100823.84;1617641;84;21074;-84
2022/08/28 06:23:48;;;;;;;14.87;12.37;;;;;;;24.22;59.66;100828.79;1642399;85;22567;-84
2022/08/28 06:26:15;;;;;;;13.38;11.83;;;;;;;24.19;59.35;100824.84;1633716;84;21627;-84
2022/08/28 06:28:42;;;;;;;16.17;11.90;;;;;;;24.18;59.00;100827.60;1646928;83;21595;-84
2022/08/28 06:31:09;;;;;;;18.05;11.68;;;;;;;24.14;59.18;100822.78;1640691;84;21102;-84
2022/08/28 06:33:36;;;;;;;19.25;12.50;;;;;;;24.18;59.15;100825.78;1653045;83;21103;-84
2022/08/28 06:36:04;;;;;;;15.23;12.00;;;;;;;24.19;59.15;100828.00;1651544;83;22515;-84
2022/08/28 06:38:30;;;;;;;14.45;12.50;;;;;;;24.23;59.31;100823.84;1639863;84;21039;-84
2022/08/28 06:40:57;;;;;;;17.52;12.28;;;;;;;24.28;59.41;100825.50;1650020;84;21011;-84
2022/08/28 06:43:27;;;;;;;15.72;12.40;;;;;;;24.29;59.41;100824.56;1644889;84;21082;-84
2022/08/28 06:45:54;;;;;;;13.75;11.65;;;;;;;24.30;58.89;100825.86;1651212;84;21018;-83
2022/08/28 06:48:24;;;;;;;18.10;12.18;;;;;;;24.26;58.77;100819.69;1641344;85;22622;-83
2022/08/28 06:50:51;;;;;;;20.17;12.25;;;;;;;24.23;58.73;100826.53;1645961;84;21545;-84
2022/08/28 06:53:21;;;;;;;16.85;11.35;;;;;;;24.28;58.88;100826.38;1636486;85;21094;-84
2022/08/28 06:56:20;;;;;;;20.55;12.30;;;;;;;24.33;58.95;100829.81;1612560;86;21026;-84
2022/08/28 06:58:48;;;;;;;17.23;12.20;;;;;;;24.36;58.96;100826.14;1632741;85;21074;-84
2022/08/28 07:01:27;;;;;;;17.17;11.73;;;;;;;24.35;58.94;100829.77;1637140;85;21722;-83
2022/08/28 07:04:02;;;;;;;19.27;11.93;;;;;;;24.33;58.90;100832.98;1650011;84;21014;-84
2022/08/28 07:06:39;;;;;;;18.52;12.05;;;;;;;24.29;59.04;100831.28;1639176;86;21886;-84
2022/08/28 07:09:07;;;;;;;16.32;12.95;;;;;;;24.25;59.11;100827.36;1636757;86;21369;-84
2022/08/28 07:11:36;;;;;;;15.08;12.28;;;;;;;24.30;59.24;100835.75;1631715;86;21050;-84
2022/08/28 07:14:03;;;;;;;16.85;13.65;;;;;;;24.29;59.37;100836.23;1633088;86;21733;-84
2022/08/28 07:16:36;;;;;;;21.37;12.30;;;;;;;24.31;59.50;100834.36;1634672;87;21032;-84
2022/08/28 07:19:05;;;;;;;16.67;12.58;;;;;;;24.35;59.64;100831.99;1638396;86;20996;-84
2022/08/28 07:21:36;;;;;;;16.82;13.10;;;;;;;24.38;59.71;100836.38;1622740;86;21028;-84
2022/08/28 07:24:03;;;;;;;18.35;12.58;;;;;;;24.47;59.87;100834.75;1642552;87;21538;-85
2022/08/28 07:26:33;;;;;;;19.15;13.18;;;;;;;24.55;59.77;100832.75;1635606;86;21730;-84
2022/08/28 07:29:01;;;;;;;16.17;12.75;;;;;;;24.60;59.75;100843.36;1630423;85;21040;-84
2022/08/28 07:31:35;;;;;;;17.05;11.48;;;;;;;24.67;59.71;100837.33;1622057;87;21051;-85
2022/08/28 07:34:01;;;;;;;13.05;11.18;;;;;;;24.73;59.50;100837.13;1643777;85;21052;-85
2022/08/28 07:36:29;;;;;;;15.98;11.22;;;;;;;24.76;59.41;100829.83;1626096;87;21052;-81
2022/08/28 07:38:57;;;;;;;22.75;13.08;;;;;;;24.77;59.11;100838.30;1640299;87;22577;-85
2022/08/28 07:41:29;;;;;;;18.02;11.68;;;;;;;24.74;58.86;100833.48;1644183;87;21055;-84
2022/08/28 07:46:40;;;;;;;14.07;10.98;;;;;;;24.83;59.03;100837.22;1636006;87;21004;-85
2022/08/28 07:49:11;;;;;;;15.70;12.03;;;;;;;24.90;59.01;100841.95;1631765;87;21032;-85
2022/08/28 07:51:37;;;;;;;16.37;13.93;;;;;;;24.94;59.15;100836.40;1625716;86;23197;-84
2022/08/28 07:54:11;;;;;;;18.45;11.53;;;;;;;25.01;59.24;100839.78;1628918;87;21040;-85
2022/08/28 07:56:41;;;;;;;16.07;11.78;;;;;;;25.08;59.14;100835.09;1629118;86;21548;-85
2022/08/28 07:59:09;;;;;;;13.05;11.10;;;;;;;25.12;58.81;100842.99;1619662;86;21422;-84
2022/08/28 08:01:40;;;;;;;16.55;11.15;;;;;;;25.11;58.63;100835.83;1625048;86;21111;-85
2022/08/28 08:04:08;;;;;;;21.05;11.30;;;;;;;25.09;58.70;100839.05;1633876;86;22548;-84
2022/08/28 08:06:36;;;;;;;17.90;12.35;;;;;;;25.11;58.62;100839.00;1640124;85;21577;-83
2022/08/28 08:09:04;;;;;;;24.32;11.60;;;;;;;25.14;58.62;100841.59;1642774;87;21569;-85
2022/08/28 08:11:31;;;;;;;19.37;12.80;;;;;;;25.19;58.62;100845.03;1634204;87;21012;-84
2022/08/28 08:14:02;;;;;;;17.77;12.45;;;;;;;25.23;58.63;100846.70;1624615;87;21059;-84
2022/08/28 08:16:26;;;;;;;32.65;14.03;;;;;;;25.25;58.62;100839.45;1623821;87;22035;-83
2022/08/28 08:18:54;;;;;;;14.78;12.55;;;;;;;25.30;58.79;100840.63;1607980;87;48994;-85
2022/08/28 08:21:21;;;;;;;23.38;12.78;;;;;;;25.37;58.81;100841.70;1624087;87;21552;-84
2022/08/28 08:23:53;;;;;;;21.25;14.18;;;;;;;25.45;58.87;100840.08;1627342;87;21907;-85
2022/08/28 08:26:22;;;;;;;18.50;13.25;;;;;;;25.53;58.91;100840.70;1629644;87;21095;-85
2022/08/28 08:28:49;;;;;;;17.40;12.50;;;;;;;25.59;58.93;100841.83;1628832;87;22398;-85
2022/08/28 08:31:22;;;;;;;32.53;14.90;;;;;;;25.66;58.98;100841.59;1631035;87;21496;-84
2022/08/28 08:33:51;;;;;;;21.80;13.23;;;;;;;25.75;59.03;100842.61;1628934;87;21036;-84
2022/08/28 08:36:19;;;;;;;21.80;13.18;;;;;;;25.85;59.00;100844.52;1602933;87;21043;-85
2022/08/28 08:38:46;;;;;;;29.20;14.15;;;;;;;25.90;58.96;100842.52;1629296;85;21540;-85
2022/08/28 08:41:46;;;;;;;24.30;13.68;;;;;;;25.96;59.02;100845.03;1623660;87;21637;-85
2022/08/28 08:44:29;;;;;;;22.07;13.45;;;;;;;25.98;58.82;100844.03;1626549;87;21463;-84
2022/08/28 08:47:21;;;;;;;25.20;13.53;;;;;;;26.01;58.77;100840.33;1630761;87;21047;-85
2022/08/28 08:50:08;;;;;;;21.42;12.47;;;;;;;26.09;58.84;100844.08;1628361;86;21063;-84
2022/08/28 08:53:04;;;;;;;19.30;11.22;;;;;;;26.19;58.62;100841.45;1637267;86;21449;-84
2022/08/28 08:55:36;;;;;;;17.37;11.83;;;;;;;26.24;57.93;100838.56;1633975;87;21763;-84
2022/08/28 08:58:29;;;;;;;22.60;11.80;;;;;;;26.32;58.08;100845.91;1644649;87;21035;-85
2022/08/28 09:01:03;;;;;;;21.12;11.55;;;;;;;26.38;58.03;100843.83;1629635;87;21028;-84
2022/08/28 09:03:58;;;;;;;26.57;12.70;;;;;;;26.43;57.61;100841.41;1628515;87;21706;-84
2022/08/28 09:06:51;;;;;;;16.00;9.68;;;;;;;26.48;57.56;100844.34;1627210;87;20992;-83
2022/08/28 09:09:31;;;;;;;15.35;11.73;;;;;;;26.55;57.19;100842.29;1636285;85;22595;-84
2022/08/28 09:12:03;;;;;;;15.55;9.45;;;;;;;26.61;56.88;100841.20;1624706;85;21003;-84
2022/08/28 09:14:50;;;;;;;11.57;8.85;;;;;;;26.63;56.35;100842.88;1637698;86;21515;-84
2022/08/28 09:17:19;;;;;;;19.40;10.00;;;;;;;26.69;55.87;100848.05;1672604;85;21011;-84
2022/08/28 09:19:46;;;;;;;18.20;10.45;;;;;;;26.74;56.02;100850.55;1670298;85;21466;-84
2022/08/28 09:22:13;;;;;;;13.90;11.03;;;;;;;26.77;56.10;100846.39;1638033;86;23046;-84
2022/08/28 09:24:40;;;;;;;23.77;10.82;;;;;;;26.80;55.93;100842.19;1642362;86;20922;-84
2022/08/28 09:27:25;;;;;;;12.95;10.00;;;;;;;26.81;55.57;100844.45;1672297;85;21008;-84
2022/08/28 09:30:07;;;;;;;15.03;9.90;;;;;;;26.83;55.39;100840.73;1634884;86;21028;-84
2022/08/28 09:32:37;;;;;;;16.30;9.83;;;;;;;26.88;55.17;100846.83;1616514;85;21425;-84
2022/08/28 09:35:15;;;;;;;14.95;9.08;;;;;;;26.93;54.77;100839.87;1677307;85;21810;-84
2022/08/28 09:37:42;;;;;;;12.43;9.88;;;;;;;26.94;54.80;100838.45;1643821;85;21028;-84
2022/08/28 09:40:20;;;;;;;16.90;9.83;;;;;;;26.98;54.27;100839.21;1658001;84;21020;-83
2022/08/28 09:45:53;;;;;;;15.90;11.40;;;;;;;27.04;54.08;100834.02;1653243;84;21087;-84
2022/08/28 09:48:23;;;;;;;19.77;10.68;;;;;;;27.11;53.72;100832.83;1660139;85;21739;-84
2022/08/28 09:51:02;;;;;;;21.48;10.80;;;;;;;27.12;53.57;100838.17;1632752;86;21095;-84
2022/08/28 09:53:29;;;;;;;20.32;12.65;;;;;;;27.15;53.57;100834.44;1651366;86;21825;-84
2022/08/28 09:56:14;;;;;;;15.90;9.85;;;;;;;27.19;53.49;100836.06;1666464;85;21017;-84
2022/08/28 09:58:44;;;;;;;22.87;11.25;;;;;;;27.24;53.31;100840.80;1654603;85;21032;-83
2022/08/28 10:01:42;;;;;;;16.75;12.03;;;;;;;27.28;53.04;100842.45;1634663;86;21824;-84
2022/08/28 10:04:23;;;;;;;20.15;10.48;;;;;;;27.33;52.78;100844.98;1661245;84;21119;-84
2022/08/28 10:06:57;;;;;;;17.70;10.25;;;;;;;27.39;52.35;100837.08;1630463;85;21023;-84
2022/08/28 10:10:01;;;;;;;15.55;10.08;;;;;;;27.42;52.34;100836.44;1634764;85;21102;-84
2022/08/28 10:12:59;;;;;;;12.58;9.35;;;;;;;27.48;52.17;100835.29;1640673;84;21015;-84
2022/08/28 10:15:38;;;;;;;16.67;9.33;;;;;;;27.53;51.70;100841.38;1679731;84;22580;-84
2022/08/28 10:18:39;;;;;;;12.75;9.23;;;;;;;27.57;51.05;100841.64;1684872;83;20995;-84
2022/08/28 10:21:51;;;;;;;12.93;8.78;;;;;;;27.60;50.74;100838.81;1655521;84;21046;-84
2022/08/28 10:24:31;;;;;;;14.83;9.03;;;;;;;27.64;50.56;100835.50;1676269;84;21771;-84
2022/08/28 10:27:18;;;;;;;13.98;8.43;;;;;;;27.69;50.44;100833.00;1685628;84;21030;-84
2022/08/28 10:29:59;;;;;;;11.70;8.23;;;;;;;27.78;50.33;100836.22;1687141;84;21707;-84
2022/08/28 10:33:02;;;;;;;15.03;8.40;;;;;;;27.84;49.95;100831.42;1689144;83;21042;-84
2022/08/28 10:36:02;;;;;;;13.25;9.33;;;;;;;27.90;49.77;100831.16;1681539;84;20999;-84
2022/08/28 10:38:44;;;;;;;17.98;10.15;;;;;;;27.99;49.58;100836.64;1682750;84;21036;-85
2022/08/28 10:41:46;;;;;;;24.35;18.00;;;;;;;28.05;49.24;100836.83;1647987;86;21027;-85
2022/08/28 10:44:22;;;;;;;16.50;13.60;;;;;;;28.00;49.23;100827.55;1613358;84;21509;-85
2022/08/28 10:46:52;;;;;;;13.25;9.18;;;;;;;28.11;49.28;100831.12;1665114;84;21587;-83
2022/08/28 10:49:33;;;;;;;14.40;8.90;;;;;;;28.15;48.69;100838.14;1666714;85;21612;-85
2022/08/28 10:52:11;;;;;;;16.37;8.93;;;;;;;28.20;48.61;100833.87;1665470;85;21027;-83
2022/08/28 10:54:58;;;;;;;15.43;10.00;;;;;;;28.28;48.16;100835.73;1649124;85;21031;-83
2022/08/28 10:57:45;;;;;;;14.38;9.35;;;;;;;28.32;47.76;100834.63;1616917;88;21804;-83
2022/08/28 11:00:16;;;;;;;17.98;11.83;;;;;;;28.37;48.00;100837.13;1624902;87;22047;-83
2022/08/28 11:02:59;;;;;;;14.78;9.93;;;;;;;28.40;47.84;100839.22;1673113;85;20992;-83
2022/08/28 11:05:30;;;;;;;16.42;10.50;;;;;;;28.45;47.20;100838.50;1656108;85;20995;-84
2022/08/28 11:08:04;;;;;;;19.17;10.25;;;;;;;28.49;47.71;100836.52;1648581;85;21071;-84
2022/08/28 11:10:43;;;;;;;17.23;8.58;;;;;;;28.51;47.56;100844.09;1659610;85;21856;-85
2022/08/28 11:13:10;;;;;;;13.10;9.23;;;;;;;28.53;47.43;100832.77;1641054;85;21061;-84
2022/08/28 11:15:40;;;;;;;15.40;8.30;;;;;;;28.60;47.38;100840.10;1665951;85;21020;-86
2022/08/28 11:18:27;;;;;;;12.60;8.90;;;;;;;28.66;47.22;100841.15;1642559;85;21514;-84
2022/08/28 11:21:05;;;;;;;12.28;8.90;;;;;;;28.71;47.04;100836.87;1627122;87;21151;-84
2022/08/28 11:23:42;;;;;;;12.05;8.70;;;;;;;28.75;46.90;100836.63;1665752;85;21493;-83
2022/08/28 11:26:09;;;;;;;16.27;8.88;;;;;;;28.79;46.88;100836.87;1675497;85;21031;-84
2022/08/28 11:28:43;;;;;;;13.05;9.00;;;;;;;28.81;46.46;100834.09;1667379;85;20996;-84
2022/08/28 11:31:15;;;;;;;16.37;8.88;;;;;;;28.79;46.10;100832.81;1642607;85;21070;-83
2022/08/28 11:33:51;;;;;;;14.15;8.80;;;;;;;28.71;45.92;100832.33;1675635;85;21509;-83
2022/08/28 11:36:28;;;;;;;10.78;8.40;;;;;;;28.64;45.85;100830.41;1674661;85;21730;-83
2022/08/28 11:39:07;;;;;;;13.88;9.53;;;;;;;28.67;46.11;100837.50;1651543;85;21012;-84